createdAt,value
2022-10-11T00:01:23.488Z,94542.75
2022-10-11T00:03:50.217Z,94544.78
2022-10-11T00:06:17.112Z,94544.84
2022-10-11T00:08:43.707Z,94545.56
2022-10-11T00:11:10.566Z,94551.88
2022-10-11T00:13:37.152Z,94549.25
2022-10-11T00:16:10.734Z,94552.00
2022-10-11T00:18:37.979Z,94559.03
2022-10-11T00:21:07.446Z,94559.09
2022-10-11T00:23:34.416Z,94557.03
2022-10-11T00:26:03.800Z,94561.09
2022-10-11T00:28:33.545Z,94555.38
2022-10-11T00:31:00.637Z,94555.97
2022-10-11T00:33:27.497Z,94562.25
2022-10-11T00:35:54.201Z,94559.41
2022-10-11T00:38:21.827Z,94557.97
2022-10-11T00:40:48.555Z,94558.56
2022-10-11T00:43:21.349Z,94558.78
2022-10-11T00:45:57.199Z,94564.91
2022-10-11T00:48:27.664Z,94559.72
2022-10-11T00:50:55.912Z,94557.63
2022-10-11T00:53:22.927Z,94552.78
2022-10-11T00:55:57.455Z,94577.16
2022-10-11T00:58:24.397Z,94571.88
2022-10-11T01:00:51.500Z,94575.34
2022-10-11T01:03:20.274Z,94571.94
2022-10-11T01:05:47.441Z,94582.09
2022-10-11T01:08:14.122Z,94576.66
2022-10-11T01:10:40.887Z,94583.31
2022-10-11T01:13:22.895Z,94584.91
2022-10-11T01:15:57.617Z,94587.06
2022-10-11T01:18:33.288Z,94590.06
2022-10-11T01:21:15.878Z,94585.19
2022-10-11T01:24:04.678Z,94584.97
2022-10-11T01:26:55.487Z,94589.59
2022-10-11T01:29:40.246Z,94585.91
2022-10-11T01:32:17.470Z,94580.13
2022-10-11T01:35:03.998Z,94580.34
2022-10-11T01:37:34.977Z,94589.53
2022-10-11T01:40:08.157Z,94596.75
2022-10-11T01:42:36.927Z,94592.56
2022-10-11T01:45:04.737Z,94589.53
2022-10-11T01:47:31.450Z,94590.91
2022-10-11T01:50:00.935Z,94586.06
2022-10-11T01:52:31.027Z,94584.69
2022-10-11T01:55:23.735Z,94585.75
2022-10-11T01:58:09.979Z,94587.53
2022-10-11T02:01:14.474Z,94591.06
2022-10-11T02:03:57.817Z,94586.56
2022-10-11T02:06:34.717Z,94581.78
2022-10-11T02:09:09.490Z,94583.31
2022-10-11T02:11:36.748Z,94590.13
2022-10-11T02:14:08.567Z,94597.41
2022-10-11T02:16:57.858Z,94604.00
2022-10-11T02:19:28.949Z,94605.16
2022-10-11T02:22:00.918Z,94601.13
2022-10-11T02:24:31.459Z,94600.53
2022-10-11T02:26:59.848Z,94605.69
2022-10-11T02:29:28.419Z,94600.97
2022-10-11T02:31:57.407Z,94606.75
2022-10-11T02:34:32.530Z,94618.59
2022-10-11T02:37:05.478Z,94611.16
2022-10-11T02:39:38.529Z,94622.44
2022-10-11T02:42:08.957Z,94623.44
2022-10-11T02:44:41.008Z,94628.53
2022-10-11T02:47:08.166Z,94623.97
2022-10-11T02:49:35.310Z,94623.09
2022-10-11T02:52:04.916Z,94626.63
2022-10-11T02:54:31.677Z,94629.53
2022-10-11T02:56:58.447Z,94627.94
2022-10-11T02:59:25.208Z,94630.03
2022-10-11T03:01:51.974Z,94620.16
2022-10-11T03:04:18.674Z,94625.78
2022-10-11T03:06:45.425Z,94628.03
2022-10-11T03:09:12.127Z,94624.41
2022-10-11T03:11:38.837Z,94624.19
2022-10-11T03:14:05.627Z,94633.59
2022-10-11T03:16:32.340Z,94630.19
2022-10-11T03:18:59.000Z,94624.34
2022-10-11T03:21:25.816Z,94629.34
2022-10-11T03:23:52.640Z,94621.31
2022-10-11T03:26:19.337Z,94618.19
2022-10-11T03:28:46.119Z,94623.69
2022-10-11T03:31:12.856Z,94625.97
2022-10-11T03:33:39.523Z,94616.56
2022-10-11T03:36:06.891Z,94626.56
2022-10-11T03:38:33.947Z,94624.31
2022-10-11T03:41:00.686Z,94633.56
2022-10-11T03:43:27.522Z,94630.06
2022-10-11T03:45:54.238Z,94637.72
2022-10-11T03:48:20.899Z,94633.72
2022-10-11T03:50:48.878Z,94627.28
2022-10-11T03:53:15.634Z,94636.19
2022-10-11T03:55:42.408Z,94630.28
2022-10-11T03:58:09.457Z,94624.06
2022-10-11T04:00:36.367Z,94626.97
2022-10-11T04:03:05.847Z,94633.78
2022-10-11T04:05:32.659Z,94622.75
2022-10-11T04:07:59.397Z,94623.78
2022-10-11T04:10:26.063Z,94615.97
2022-10-11T04:12:52.796Z,94625.19
2022-10-11T04:15:19.687Z,94622.16
2022-10-11T04:17:46.320Z,94628.38
2022-10-11T04:20:12.968Z,94629.75
2022-10-11T04:22:39.708Z,94628.31
2022-10-11T04:25:08.048Z,94621.63
2022-10-11T04:27:34.875Z,94619.84
2022-10-11T04:30:01.723Z,94621.09
2022-10-11T04:32:28.368Z,94624.25
2022-10-11T04:34:54.980Z,94620.94
2022-10-11T04:37:21.739Z,94626.28
2022-10-11T04:39:48.322Z,94619.50
2022-10-11T04:42:14.914Z,94622.66
2022-10-11T04:44:41.508Z,94627.84
2022-10-11T04:47:08.205Z,94632.50
2022-10-11T04:49:34.868Z,94625.50
2022-10-11T04:52:01.588Z,94632.06
2022-10-11T04:54:28.201Z,94632.34
2022-10-11T04:56:54.923Z,94630.19
2022-10-11T04:59:21.580Z,94627.97
2022-10-11T05:01:48.369Z,94640.00
2022-10-11T05:04:15.123Z,94639.00
2022-10-11T05:06:41.879Z,94629.19
2022-10-11T05:09:08.698Z,94626.16
2022-10-11T05:11:35.477Z,94625.94
2022-10-11T05:14:02.226Z,94624.69
2022-10-11T05:16:28.981Z,94620.13
2022-10-11T05:18:55.636Z,94622.91
2022-10-11T05:21:25.097Z,94625.56
2022-10-11T05:23:53.357Z,94629.69
2022-10-11T05:26:20.851Z,94624.41
2022-10-11T05:28:48.179Z,94625.66
2022-10-11T05:31:16.099Z,94627.97
2022-10-11T05:33:43.135Z,94628.75
2022-10-11T05:36:10.548Z,94635.78
2022-10-11T05:38:38.255Z,94633.09
2022-10-11T05:41:05.509Z,94630.56
2022-10-11T05:43:32.691Z,94637.56
2022-10-11T05:45:59.476Z,94627.56
2022-10-11T05:48:26.926Z,94638.16
2022-10-11T05:50:59.265Z,94636.47
2022-10-11T05:53:26.347Z,94639.75
2022-10-11T05:55:53.088Z,94646.53
2022-10-11T05:58:19.856Z,94649.16
2022-10-11T06:00:46.659Z,94649.16
2022-10-11T06:03:13.850Z,94642.34
2022-10-11T06:05:40.629Z,94652.00
2022-10-11T06:08:11.203Z,94650.22
2022-10-11T06:10:38.565Z,94656.44
2022-10-11T06:13:05.756Z,94655.81
2022-10-11T06:15:32.728Z,94659.56
2022-10-11T06:17:59.535Z,94653.91
2022-10-11T06:20:27.127Z,94663.31
2022-10-11T06:22:53.908Z,94665.19
2022-10-11T06:25:20.780Z,94669.09
2022-10-11T06:27:47.448Z,94670.66
2022-10-11T06:30:14.828Z,94677.03
2022-10-11T06:32:41.548Z,94681.44
2022-10-11T06:35:08.717Z,94683.31
2022-10-11T06:37:35.642Z,94686.22
2022-10-11T06:40:02.401Z,94689.97
2022-10-11T06:42:29.185Z,94692.72
2022-10-11T06:44:55.895Z,94689.28
2022-10-11T06:47:22.934Z,94694.84
2022-10-11T06:49:49.617Z,94693.59
2022-10-11T06:52:16.402Z,94692.47
2022-10-11T06:54:45.117Z,94698.22
2022-10-11T06:57:12.285Z,94697.69
2022-10-11T06:59:39.054Z,94699.69
2022-10-11T07:02:05.797Z,94700.06
2022-10-11T07:04:34.062Z,94705.75
2022-10-11T07:07:01.092Z,94716.81
2022-10-11T07:09:27.825Z,94717.75
2022-10-11T07:11:54.549Z,94715.56
2022-10-11T07:14:21.438Z,94713.41
2022-10-11T07:16:48.289Z,94710.22
2022-10-11T07:19:15.113Z,94706.97
2022-10-11T07:21:41.934Z,94709.31
2022-10-11T07:24:08.797Z,94708.94
2022-10-11T07:26:38.731Z,94707.41
2022-10-11T07:29:07.264Z,94713.75
2022-10-11T07:31:34.148Z,94715.03
2022-10-11T07:34:01.010Z,94712.34
2022-10-11T07:36:27.795Z,94714.13
2022-10-11T07:38:54.487Z,94716.03
2022-10-11T07:41:21.388Z,94714.03
2022-10-11T07:43:49.794Z,94712.31
2022-10-11T07:46:18.047Z,94714.25
2022-10-11T07:48:44.857Z,94712.88
2022-10-11T07:51:15.487Z,94713.19
2022-10-11T07:53:46.876Z,94706.63
2022-10-11T07:56:15.898Z,94709.66
2022-10-11T07:58:43.369Z,94712.75
2022-10-11T08:01:11.164Z,94720.03
2022-10-11T08:03:38.479Z,94722.91
2022-10-11T08:06:07.794Z,94730.56
2022-10-11T08:08:35.697Z,94731.75
2022-10-11T08:11:02.469Z,94743.59
2022-10-11T08:13:29.375Z,94746.41
2022-10-11T08:15:56.953Z,94763.25
2022-10-11T08:18:23.776Z,94766.69
2022-10-11T08:20:50.517Z,94769.97
2022-10-11T08:23:18.670Z,94770.38
2022-10-11T08:25:47.148Z,94768.25
2022-10-11T08:28:18.059Z,94768.19
2022-10-11T08:30:52.790Z,94770.88
2022-10-11T08:33:21.775Z,94768.13
2022-10-11T08:35:49.250Z,94766.47
2022-10-11T08:38:16.356Z,94772.09
2022-10-11T08:40:50.917Z,94769.28
2022-10-11T08:43:46.402Z,94770.50
2022-10-11T08:46:14.438Z,94764.75
2022-10-11T08:48:50.119Z,94763.69
2022-10-11T08:51:22.827Z,94775.03
2022-10-11T08:53:54.370Z,94764.63
2022-10-11T08:56:21.359Z,94761.06
2022-10-11T08:59:10.044Z,94766.44
2022-10-11T09:01:38.836Z,94773.06
2022-10-11T09:04:06.305Z,94759.31
2022-10-11T09:06:50.884Z,94764.13
2022-10-11T09:09:42.618Z,94757.59
2022-10-11T09:12:30.873Z,94760.66
2022-10-11T09:15:04.658Z,94770.91
2022-10-11T09:17:59.209Z,94770.44
2022-10-11T09:21:14.252Z,94778.06
2022-10-11T09:24:03.911Z,94767.50
2022-10-11T09:27:10.855Z,94767.72
2022-10-11T09:29:40.469Z,94781.78
2022-10-11T09:32:16.035Z,94766.38
2022-10-11T09:34:43.566Z,94766.84
2022-10-11T09:37:20.340Z,94761.28
2022-10-11T09:40:10.176Z,94755.56
2022-10-11T09:42:36.894Z,94750.72
2022-10-11T09:45:14.578Z,94746.03
2022-10-11T09:47:41.436Z,94748.81
2022-10-11T09:50:16.731Z,94752.28
2022-10-11T09:52:54.850Z,94752.03
2022-10-11T09:55:36.059Z,94762.28
2022-10-11T09:58:04.861Z,94755.00
2022-10-11T10:00:33.946Z,94753.00
2022-10-11T10:03:03.075Z,94757.31
2022-10-11T10:05:33.015Z,94752.66
2022-10-11T10:08:09.312Z,94755.91
2022-10-11T10:10:43.018Z,94758.06
2022-10-11T10:13:23.378Z,94756.94
2022-10-11T10:15:53.736Z,94755.25
2022-10-11T10:18:28.477Z,94755.09
2022-10-11T10:20:57.409Z,94757.69
2022-10-11T10:23:28.160Z,94754.59
2022-10-11T10:26:35.566Z,94730.16
2022-10-11T10:29:11.160Z,94744.66
2022-10-11T10:32:13.378Z,94760.50
2022-10-11T10:34:47.906Z,94756.66
2022-10-11T10:37:32.138Z,94743.94
2022-10-11T10:40:04.027Z,94763.53
2022-10-11T10:42:30.804Z,94761.03
2022-10-11T10:44:58.765Z,94753.31
2022-10-11T10:48:13.447Z,94755.28
2022-10-11T10:50:55.152Z,94764.44
2022-10-11T10:53:29.622Z,94754.16
2022-10-11T10:56:19.545Z,94757.56
2022-10-11T10:59:16.776Z,94751.94
2022-10-11T11:02:11.167Z,94753.44
2022-10-11T11:05:02.187Z,94744.28
2022-10-11T11:08:05.018Z,94747.75
2022-10-11T11:10:42.541Z,94750.94
2022-10-11T11:13:44.681Z,94745.63
2022-10-11T11:16:25.306Z,94745.44
2022-10-11T11:19:04.650Z,94733.28
2022-10-11T11:21:31.830Z,94741.41
2022-10-11T11:24:10.669Z,94739.81
2022-10-11T11:26:57.410Z,94732.06
2022-10-11T11:29:50.797Z,94732.16
2022-10-11T11:32:46.039Z,94732.09
2022-10-11T11:35:37.266Z,94721.59
2022-10-11T11:38:53.571Z,94725.72
2022-10-11T11:41:27.055Z,94715.28
2022-10-11T11:43:59.336Z,94720.56
2022-10-11T11:46:34.496Z,94711.91
2022-10-11T11:49:12.134Z,94721.06
2022-10-11T11:51:43.539Z,94711.03
2022-10-11T11:54:50.609Z,94714.78
2022-10-11T11:57:26.294Z,94712.88
2022-10-11T11:59:59.678Z,94713.19
2022-10-11T12:02:46.850Z,94719.31
2022-10-11T12:05:17.296Z,94704.56
2022-10-11T12:07:49.134Z,94711.66
2022-10-11T12:10:53.242Z,94713.28
2022-10-11T12:13:41.033Z,94710.31
2022-10-11T12:16:09.934Z,94716.13
2022-10-11T12:18:47.445Z,94714.25
2022-10-11T12:21:22.716Z,94712.88
2022-10-11T12:23:54.553Z,94714.53
2022-10-11T12:26:36.135Z,94705.06
2022-10-11T12:29:24.662Z,94713.25
2022-10-11T12:32:01.118Z,94708.13
2022-10-11T12:34:41.612Z,94698.38
2022-10-11T12:37:31.334Z,94694.69
2022-10-11T12:39:59.257Z,94674.88
2022-10-11T12:42:30.112Z,94683.84
2022-10-11T12:45:20.013Z,94679.84
2022-10-11T12:48:11.715Z,94667.69
2022-10-11T12:50:46.759Z,94670.06
2022-10-11T12:54:24.942Z,94665.22
2022-10-11T12:57:12.059Z,94671.94
2022-10-11T12:59:44.993Z,94661.66
2022-10-11T13:02:42.721Z,94654.81
2022-10-11T13:05:21.070Z,94636.00
2022-10-11T13:07:48.224Z,94643.28
2022-10-11T13:10:16.934Z,94641.66
2022-10-11T13:12:46.405Z,94640.53
2022-10-11T13:15:16.085Z,94640.56
2022-10-11T13:17:43.464Z,94637.84
2022-10-11T13:20:18.652Z,94634.41
2022-10-11T13:22:51.204Z,94629.81
2022-10-11T13:25:21.372Z,94633.75
2022-10-11T13:27:49.715Z,94636.78
2022-10-11T13:30:20.295Z,94640.19
2022-10-11T13:32:47.193Z,94638.88
2022-10-11T13:35:30.142Z,94647.00
2022-10-11T13:37:57.012Z,94644.44
2022-10-11T13:40:24.105Z,94646.38
2022-10-11T13:42:52.552Z,94648.75
2022-10-11T13:45:25.215Z,94646.63
2022-10-11T13:47:53.288Z,94640.63
2022-10-11T13:50:30.417Z,94646.00
2022-10-11T13:53:01.505Z,94642.84
2022-10-11T13:55:47.705Z,94647.19
2022-10-11T13:58:45.574Z,94642.94
2022-10-11T14:01:18.788Z,94644.25
2022-10-11T14:03:59.444Z,94637.69
2022-10-11T14:06:48.535Z,94634.03
2022-10-11T14:09:22.510Z,94638.50
2022-10-11T14:11:49.982Z,94641.63
2022-10-11T14:14:35.432Z,94631.56
2022-10-11T14:17:11.034Z,94639.88
2022-10-11T14:19:38.185Z,94638.91
2022-10-11T14:22:06.212Z,94639.94
2022-10-11T14:24:33.057Z,94636.78
2022-10-11T14:27:00.106Z,94638.97
2022-10-11T14:29:35.334Z,94636.28
2022-10-11T14:32:07.174Z,94626.38
2022-10-11T14:34:34.724Z,94631.81
2022-10-11T14:37:01.663Z,94635.50
2022-10-11T14:39:30.495Z,94628.41
2022-10-11T14:41:57.855Z,94630.88
2022-10-11T14:44:24.766Z,94628.25
2022-10-11T14:46:54.357Z,94630.72
2022-10-11T14:49:26.829Z,94628.03
2022-10-11T14:51:54.984Z,94625.09
2022-10-11T14:54:24.305Z,94636.44
2022-10-11T14:56:52.686Z,94636.25
2022-10-11T14:59:22.892Z,94641.63
2022-10-11T15:01:52.016Z,94640.19
2022-10-11T15:04:24.734Z,94640.03
2022-10-11T15:06:54.401Z,94639.75
2022-10-11T15:09:21.697Z,94635.13
2022-10-11T15:11:52.966Z,94629.81
2022-10-11T15:14:19.773Z,94627.38
2022-10-11T15:16:46.494Z,94629.44
2022-10-11T15:19:20.362Z,94629.41
2022-10-11T15:21:47.404Z,94627.66
2022-10-11T15:24:14.413Z,94627.59
2022-10-11T15:26:42.195Z,94630.34
2022-10-11T15:29:11.766Z,94624.41
2022-10-11T15:31:39.626Z,94623.91
2022-10-11T15:34:06.574Z,94633.44
2022-10-11T15:36:33.424Z,94629.84
2022-10-11T15:39:01.699Z,94624.94
2022-10-11T15:41:28.794Z,94623.81
2022-10-11T15:43:55.692Z,94624.13
2022-10-11T15:46:23.262Z,94634.03
2022-10-11T15:48:50.994Z,94630.53
2022-10-11T15:51:17.894Z,94628.94
2022-10-11T15:53:44.732Z,94625.97
2022-10-11T15:56:15.963Z,94627.25
2022-10-11T15:58:43.214Z,94631.06
2022-10-11T16:01:15.020Z,94623.94
2022-10-11T16:03:42.242Z,94633.84
2022-10-11T16:06:09.889Z,94623.03
2022-10-11T16:08:37.434Z,94632.75
2022-10-11T16:11:05.896Z,94634.22
2022-10-11T16:13:33.044Z,94627.66
2022-10-11T16:16:04.928Z,94635.84
2022-10-11T16:18:35.407Z,94630.25
2022-10-11T16:21:07.146Z,94630.50
2022-10-11T16:23:34.266Z,94627.78
2022-10-11T16:26:03.251Z,94623.03
2022-10-11T16:28:30.950Z,94629.38
2022-10-11T16:30:57.832Z,94632.66
2022-10-11T16:33:25.160Z,94635.63
2022-10-11T16:35:52.174Z,94638.81
2022-10-11T16:38:18.984Z,94635.88
2022-10-11T16:40:45.777Z,94637.56
2022-10-11T16:43:12.412Z,94632.34
2022-10-11T16:45:39.273Z,94640.63
2022-10-11T16:48:06.397Z,94650.06
2022-10-11T16:50:38.369Z,94639.69
2022-10-11T16:53:06.230Z,94645.09
2022-10-11T16:55:32.934Z,94660.09
2022-10-11T16:57:59.743Z,94656.75
2022-10-11T17:00:26.619Z,94658.19
2022-10-11T17:02:53.326Z,94659.66
2022-10-11T17:05:20.000Z,94662.06
2022-10-11T17:07:46.705Z,94670.00
2022-10-11T17:10:13.404Z,94673.75
2022-10-11T17:12:40.269Z,94672.38
2022-10-11T17:15:07.722Z,94675.75
2022-10-11T17:17:34.612Z,94681.91
2022-10-11T17:20:02.437Z,94674.16
2022-10-11T17:22:29.303Z,94681.91
2022-10-11T17:24:55.963Z,94674.28
2022-10-11T17:27:26.479Z,94675.53
2022-10-11T17:29:54.254Z,94683.88
2022-10-11T17:32:25.771Z,94678.16
2022-10-11T17:34:54.358Z,94681.78
2022-10-11T17:37:24.265Z,94680.63
2022-10-11T17:39:53.404Z,94686.66
2022-10-11T17:42:30.752Z,94679.47
2022-10-11T17:45:02.444Z,94675.28
2022-10-11T17:47:30.350Z,94674.72
2022-10-11T17:50:00.363Z,94681.75
2022-10-11T17:52:30.025Z,94684.16
2022-10-11T17:54:56.745Z,94681.91
2022-10-11T17:57:23.504Z,94683.47
2022-10-11T17:59:50.324Z,94683.03
2022-10-11T18:02:17.292Z,94692.66
2022-10-11T18:04:44.134Z,94683.91
2022-10-11T18:07:10.796Z,94684.63
2022-10-11T18:09:37.762Z,94680.00
2022-10-11T18:12:04.640Z,94682.53
2022-10-11T18:14:31.642Z,94678.84
2022-10-11T18:16:58.405Z,94676.81
2022-10-11T18:19:25.168Z,94679.53
2022-10-11T18:21:51.874Z,94674.78
2022-10-11T18:24:18.646Z,94675.66
2022-10-11T18:26:46.661Z,94680.72
2022-10-11T18:29:13.623Z,94677.25
2022-10-11T18:31:41.274Z,94678.53
2022-10-11T18:34:11.398Z,94680.09
2022-10-11T18:36:39.488Z,94683.75
2022-10-11T18:39:08.397Z,94681.84
2022-10-11T18:41:35.841Z,94681.25
2022-10-11T18:44:05.553Z,94692.69
2022-10-11T18:46:32.692Z,94687.47
2022-10-11T18:49:02.140Z,94688.59
2022-10-11T18:51:32.085Z,94682.03
2022-10-11T18:54:00.082Z,94694.69
2022-10-11T18:56:28.907Z,94686.59
2022-10-11T18:58:56.966Z,94689.06
2022-10-11T19:01:26.397Z,94677.69
2022-10-11T19:03:56.894Z,94687.16
2022-10-11T19:06:26.984Z,94682.91
2022-10-11T19:09:06.361Z,94686.50
2022-10-11T19:11:33.556Z,94682.03
2022-10-11T19:14:07.051Z,94679.88
2022-10-11T19:16:35.870Z,94674.06
2022-10-11T19:19:03.044Z,94675.16
2022-10-11T19:21:30.042Z,94675.81
2022-10-11T19:23:57.275Z,94678.13
2022-10-11T19:26:28.833Z,94675.81
2022-10-11T19:29:07.706Z,94678.16
2022-10-11T19:31:36.177Z,94678.41
2022-10-11T19:34:03.514Z,94674.47
2022-10-11T19:36:35.509Z,94682.06
2022-10-11T19:39:04.791Z,94682.06
2022-10-11T19:41:31.724Z,94679.84
2022-10-11T19:43:58.691Z,94673.94
2022-10-11T19:46:50.441Z,94673.59
2022-10-11T19:49:14.142Z,94674.25
2022-10-11T19:51:40.752Z,94679.44
2022-10-11T19:54:11.352Z,94684.22
2022-10-11T19:56:38.252Z,94681.41
2022-10-11T19:59:08.453Z,94679.22
2022-10-11T20:01:36.416Z,94669.03
2022-10-11T20:04:06.332Z,94674.66
2022-10-11T20:06:38.315Z,94669.91
2022-10-11T20:09:28.601Z,94678.56
2022-10-11T20:11:56.588Z,94669.38
2022-10-11T20:14:23.383Z,94669.75
2022-10-11T20:16:50.883Z,94667.31
2022-10-11T20:19:17.643Z,94675.38
2022-10-11T20:21:45.298Z,94675.59
2022-10-11T20:24:11.969Z,94674.13
2022-10-11T20:26:39.418Z,94676.47
2022-10-11T20:29:06.650Z,94680.31
2022-10-11T20:31:38.305Z,94675.34
2022-10-11T20:34:07.452Z,94677.19
2022-10-11T20:36:36.132Z,94677.09
2022-10-11T20:39:04.463Z,94680.09
2022-10-11T20:41:37.210Z,94675.34
2022-10-11T20:44:04.683Z,94678.59
2022-10-11T20:46:36.683Z,94678.72
2022-10-11T20:49:08.409Z,94680.41
2022-10-11T20:51:36.951Z,94675.13
2022-10-11T20:54:04.748Z,94680.47
2022-10-11T20:56:32.111Z,94678.72
2022-10-11T20:58:59.031Z,94676.75
2022-10-11T21:01:37.222Z,94682.94
2022-10-11T21:04:04.971Z,94682.56
2022-10-11T21:06:32.584Z,94693.34
2022-10-11T21:09:00.153Z,94685.13
2022-10-11T21:11:31.164Z,94680.56
2022-10-11T21:14:02.545Z,94671.13
2022-10-11T21:16:29.496Z,94675.88
2022-10-11T21:18:57.858Z,94682.53
2022-10-11T21:21:25.125Z,94687.34
2022-10-11T21:24:00.156Z,94683.84
2022-10-11T21:26:27.553Z,94680.88
2022-10-11T21:28:54.391Z,94688.28
2022-10-11T21:31:22.691Z,94685.06
2022-10-11T21:33:49.357Z,94672.06
2022-10-11T21:36:18.588Z,94683.66
2022-10-11T21:38:45.240Z,94680.81
2022-10-11T21:41:14.114Z,94681.25
2022-10-11T21:43:40.853Z,94679.25
2022-10-11T21:46:53.995Z,94683.72
2022-10-11T21:49:16.560Z,94676.84
2022-10-11T21:51:43.228Z,94677.66
2022-10-11T21:54:09.905Z,94686.66
2022-10-11T21:56:36.627Z,94684.88
2022-10-11T21:59:06.576Z,94678.44
2022-10-11T22:01:36.986Z,94669.69
2022-10-11T22:04:04.982Z,94672.69
2022-10-11T22:06:31.586Z,94678.53
2022-10-11T22:08:58.151Z,94674.94
2022-10-11T22:11:24.737Z,94681.13
2022-10-11T22:13:51.311Z,94674.34
2022-10-11T22:16:18.012Z,94674.94
2022-10-11T22:18:44.779Z,94668.50
2022-10-11T22:21:16.910Z,94672.13
2022-10-11T22:23:45.363Z,94677.53
2022-10-11T22:26:14.424Z,94672.16
2022-10-11T22:28:41.434Z,94669.53
2022-10-11T22:31:09.766Z,94663.72
2022-10-11T22:33:36.595Z,94668.06
2022-10-11T22:36:05.931Z,94662.66
2022-10-11T22:38:32.813Z,94663.38
2022-10-11T22:40:59.421Z,94658.94
2022-10-11T22:43:26.045Z,94656.72
2022-10-11T22:45:52.655Z,94657.31
2022-10-11T22:48:19.226Z,94655.97
2022-10-11T22:50:45.842Z,94654.13
2022-10-11T22:53:13.491Z,94654.56
2022-10-11T22:55:40.520Z,94652.97
2022-10-11T22:58:07.178Z,94661.94
2022-10-11T23:00:34.275Z,94648.16
2022-10-11T23:03:00.943Z,94655.97
2022-10-11T23:05:27.627Z,94657.56
2022-10-11T23:07:54.415Z,94652.34
2022-10-11T23:10:21.281Z,94658.75
2022-10-11T23:12:48.064Z,94656.09
2022-10-11T23:15:15.414Z,94658.09
2022-10-11T23:17:42.574Z,94653.88
2022-10-11T23:20:09.764Z,94661.47
2022-10-11T23:22:36.453Z,94658.28
2022-10-11T23:25:03.305Z,94659.13
2022-10-11T23:27:30.362Z,94656.72
2022-10-11T23:29:57.093Z,94661.19
2022-10-11T23:32:24.065Z,94667.84
2022-10-11T23:34:51.734Z,94666.81
2022-10-11T23:37:18.465Z,94663.81
2022-10-11T23:39:45.626Z,94663.28
2022-10-11T23:42:12.492Z,94664.66
2022-10-11T23:44:39.258Z,94666.69
2022-10-11T23:47:05.925Z,94665.25
2022-10-11T23:49:32.567Z,94670.03
2022-10-11T23:51:59.243Z,94653.69
2022-10-11T23:54:26.200Z,94664.44
2022-10-11T23:56:52.945Z,94670.63
2022-10-11T23:59:19.722Z,94661.66
